»·PEaware :: AAL1599 KGJT-KDEN

AAL1599 :: KGJT-KDEN

FLIGHT INFORMATION

Flight Status: Arrived
Operator:
American Airlines
More flights by this operator :: More flights under this callsign
Pilot: Jonathan O. (14851)
Aircraft: CANADAIR CL-600 CRJ-700
(CRJ7)
More flights by this aircraft type
Origin: KGJT Grand Junction Regl
United States
Destination: KDEN Denver Intl
United States
More flights between these airports :: More routes between these airports
Route: JNC7 JNC HAQHY SSKII3
File this flight plan on PilotEdge
Remarks:
Altitude:
(Current/Filed)
27,000ft
Speed:
(Current/Filed)
495kts
Departed: 08-Sep-22 03:35 PM
Arrived: 08-Sep-22 04:18 PM
Distance/Time
Traveled:
184nm/0:43
Distance/Time
To Go:
Arrived

Flight Plot

Page will automatically refresh every two minutes.

Flight plan parsing failed; only flown route is shown


Map Options




Map Legend


Flown Route
Filed Route
Departure Airport
Arrival Airport
Navaid (VOR, NDB)
Fix

Horizontal Profiles

Position Reports

Time Latitude Longitude Heading Altitude Ground
Speed
08-Sep-22 14:34 33.940336 -118.397661 85 123ft 0kts
08-Sep-22 14:35 33.940336 -118.397661 85 123ft 0kts
08-Sep-22 14:38 39.122239 -108.526242 196 4854ft 0kts
08-Sep-22 14:39 39.122239 -108.526242 196 4854ft 0kts
08-Sep-22 14:40 39.122239 -108.526242 196 4854ft 0kts
08-Sep-22 14:41 39.122239 -108.526242 196 4854ft 0kts
08-Sep-22 14:42 39.122239 -108.526242 196 4854ft 0kts
08-Sep-22 14:43 39.122239 -108.526242 196 4854ft 0kts
08-Sep-22 14:44 39.122239 -108.526242 196 4854ft 0kts
08-Sep-22 14:45 39.122239 -108.526242 196 4854ft 0kts
08-Sep-22 14:46 39.122239 -108.526242 196 4854ft 0kts
08-Sep-22 14:47 39.122239 -108.526242 196 4854ft 0kts
08-Sep-22 14:48 39.122239 -108.526242 196 4854ft 0kts
08-Sep-22 14:49 39.122239 -108.526242 196 4854ft 0kts
08-Sep-22 14:50 39.122239 -108.526242 196 4854ft 0kts
08-Sep-22 14:51 39.122239 -108.526242 196 4854ft 0kts
08-Sep-22 14:52 39.122239 -108.526242 196 4854ft 0kts
08-Sep-22 14:53 39.122239 -108.526242 196 4854ft 0kts
08-Sep-22 14:54 39.122239 -108.526242 196 4854ft 0kts
08-Sep-22 14:55 39.122239 -108.526242 196 4854ft 0kts
08-Sep-22 14:56 39.122239 -108.526242 196 4854ft 0kts
08-Sep-22 14:57 39.122239 -108.526242 196 4854ft 0kts
08-Sep-22 14:58 39.122239 -108.526242 196 4854ft 0kts
08-Sep-22 14:59 39.122239 -108.526242 196 4854ft 0kts
08-Sep-22 15:00 39.122239 -108.526242 196 4854ft 0kts
08-Sep-22 15:01 39.122239 -108.526242 196 4854ft 0kts
08-Sep-22 15:02 39.122239 -108.526242 196 4854ft 0kts
08-Sep-22 15:03 39.122239 -108.526242 196 4854ft 0kts
08-Sep-22 15:04 39.122239 -108.526242 196 4854ft 0kts
08-Sep-22 15:05 39.122239 -108.526242 196 4854ft 0kts
08-Sep-22 15:06 39.122239 -108.526242 196 4854ft 0kts
08-Sep-22 15:07 39.122239 -108.526242 196 4854ft 0kts
08-Sep-22 15:08 39.122239 -108.526242 196 4854ft 0kts
08-Sep-22 15:09 39.122239 -108.526242 196 4854ft 0kts
08-Sep-22 15:10 39.122239 -108.526242 196 4854ft 0kts
08-Sep-22 15:11 39.122239 -108.526242 196 4854ft 0kts
08-Sep-22 15:12 39.122239 -108.526242 196 4854ft 0kts
08-Sep-22 15:14 39.122239 -108.526242 196 4854ft 0kts
08-Sep-22 15:15 39.122239 -108.526242 196 4854ft 0kts
08-Sep-22 15:16 39.122239 -108.526242 196 4854ft 0kts
08-Sep-22 15:17 39.122239 -108.526242 196 4854ft 0kts
08-Sep-22 15:18 39.122239 -108.526242 196 4854ft 0kts
08-Sep-22 15:19 39.122436 -108.526167 196 4856ft 2kts
08-Sep-22 15:20 39.122857 -108.526239 133 4856ft 0kts
08-Sep-22 15:21 39.122857 -108.526239 133 4856ft 0kts
08-Sep-22 15:22 39.122857 -108.526239 133 4856ft 0kts
08-Sep-22 15:23 39.122857 -108.526239 133 4856ft 0kts
08-Sep-22 15:24 39.122857 -108.526239 133 4856ft 0kts
08-Sep-22 15:25 39.122857 -108.526239 133 4856ft 0kts
08-Sep-22 15:26 39.122857 -108.526239 133 4856ft 0kts
08-Sep-22 15:27 39.122857 -108.526239 133 4856ft 0kts
08-Sep-22 15:28 39.122769 -108.526036 103 4857ft 2kts
08-Sep-22 15:29 39.122177 -108.523464 123 4858ft 13kts
08-Sep-22 15:30 39.119768 -108.519088 125 4862ft 17kts
08-Sep-22 15:31 39.118358 -108.516532 125 4865ft 0kts
08-Sep-22 15:32 39.118358 -108.516532 125 4865ft 0kts
08-Sep-22 15:33 39.117976 -108.515672 94 4866ft 7kts
08-Sep-22 15:34 39.118976 -108.515248 306 4867ft 1kts
08-Sep-22 15:34 39.129981 -108.535054 305 5311ft 161kts
08-Sep-22 15:35 39.135864 -108.597632 218 7462ft 250kts
08-Sep-22 15:37 39.089628 -108.693678 249 11478ft 294kts
08-Sep-22 15:38 39.026897 -108.744079 157 13888ft 327kts
08-Sep-22 15:39 38.980605 -108.639460 85 14087ft 391kts
08-Sep-22 15:39 38.969215 -108.519780 111 14053ft 404kts
08-Sep-22 15:40 38.925654 -108.396173 114 14020ft 359kts
08-Sep-22 15:41 38.881942 -108.268641 114 17009ft 393kts
08-Sep-22 15:43 38.829828 -108.117739 110 21458ft 408kts
08-Sep-22 15:44 38.839342 -107.971766 74 24238ft 425kts
08-Sep-22 15:44 38.864031 -107.847045 77 26258ft 441kts
08-Sep-22 15:45 38.891847 -107.688125 76 26978ft 464kts
08-Sep-22 15:46 38.918735 -107.535175 77 26998ft 466kts
08-Sep-22 15:47 38.946535 -107.375199 77 26998ft 460kts
08-Sep-22 15:48 38.974432 -107.212794 77 27005ft 468kts
08-Sep-22 15:49 39.022480 -107.061555 40 27010ft 465kts
08-Sep-22 15:50 39.103250 -106.941485 76 27011ft 462kts
08-Sep-22 15:51 39.160352 -106.796627 85 26998ft 461kts
08-Sep-22 15:52 39.107357 -106.651007 120 27018ft 461kts
08-Sep-22 15:53 39.093621 -106.492445 77 27001ft 460kts
08-Sep-22 15:54 39.122900 -106.332254 77 26997ft 463kts
08-Sep-22 15:55 39.148559 -106.170304 76 26339ft 432kts
08-Sep-22 15:56 39.198106 -106.031545 65 25086ft 427kts
08-Sep-22 15:57 39.247776 -105.888566 64 23376ft 439kts
08-Sep-22 15:58 39.298035 -105.748586 65 21361ft 410kts
08-Sep-22 15:59 39.344116 -105.620882 64 20055ft 383kts
08-Sep-22 16:00 39.386952 -105.503587 64 18100ft 342kts
08-Sep-22 16:01 39.418615 -105.396984 86 17515ft 303kts
08-Sep-22 16:02 39.417910 -105.289916 90 17103ft 300kts
08-Sep-22 16:03 39.417971 -105.183987 89 15471ft 291kts
08-Sep-22 16:05 39.418541 -105.000693 89 13371ft 265kts
08-Sep-22 16:06 39.422639 -104.888763 82 12449ft 264kts
08-Sep-22 16:07 39.432393 -104.795730 84 11406ft 257kts
08-Sep-22 16:08 39.468564 -104.726381 40 11039ft 224kts
08-Sep-22 16:09 39.510776 -104.677658 40 10987ft 182kts
08-Sep-22 16:10 39.561252 -104.656021 354 11039ft 192kts
08-Sep-22 16:11 39.616367 -104.661994 354 9592ft 193kts
08-Sep-22 16:12 39.666568 -104.662538 359 8650ft 178kts
08-Sep-22 16:13 39.715993 -104.661887 358 7619ft 174kts
08-Sep-22 16:14 39.757611 -104.661385 359 6826ft 149kts
08-Sep-22 16:15 39.797756 -104.661333 359 6013ft 144kts
08-Sep-22 16:16 39.837251 -104.660483 0 5414ft 125kts
08-Sep-22 16:17 39.849283 -104.661713 331 5400ft 0kts
08-Sep-22 16:18 39.849949 -104.662192 332 5402ft 7kts
08-Sep-22 16:19 39.852927 -104.663068 275 5396ft 9kts
08-Sep-22 16:20 39.854555 -104.665875 1 5389ft 17kts
08-Sep-22 16:21 39.857485 -104.665904 0 5384ft 0kts
08-Sep-22 16:22 39.857485 -104.665904 0 5384ft 0kts
08-Sep-22 16:23 39.857485 -104.665904 0 5384ft 0kts
08-Sep-22 16:24 39.857485 -104.665904 0 5384ft 0kts
08-Sep-22 16:25 39.857485 -104.665904 0 5384ft 0kts

Navigation Log

Ident Type
Flight plan parsing failed, navigation log unavailable